sensor_id;sensor_type;location;lat;lon;timestamp;temperature;humidity
80228;DHT22;69539;42.138;24.742;2024-02-26T00:01:35;17.10;43.80
80228;DHT22;69539;42.138;24.742;2024-02-26T00:04:20;17.20;43.70
80228;DHT22;69539;42.138;24.742;2024-02-26T00:10:12;17.20;43.60
80228;DHT22;69539;42.138;24.742;2024-02-26T00:29:35;17.00;43.50
80228;DHT22;69539;42.138;24.742;2024-02-26T00:35:48;17.00;43.80
80228;DHT22;69539;42.138;24.742;2024-02-26T00:41:41;16.90;44.90
80228;DHT22;69539;42.138;24.742;2024-02-26T00:47:40;16.80;44.30
80228;DHT22;69539;42.138;24.742;2024-02-26T00:50:11;16.80;44.30
80228;DHT22;69539;42.138;24.742;2024-02-26T00:59:40;16.80;44.30
80228;DHT22;69539;42.138;24.742;2024-02-26T01:05:21;16.80;44.30
80228;DHT22;69539;42.138;24.742;2024-02-26T01:08:01;16.80;44.30
80228;DHT22;69539;42.138;24.742;2024-02-26T01:13:52;16.70;44.70
80228;DHT22;69539;42.138;24.742;2024-02-26T01:23:49;16.80;44.80
80228;DHT22;69539;42.138;24.742;2024-02-26T01:30:20;16.80;44.70
80228;DHT22;69539;42.138;24.742;2024-02-26T01:33:19;16.80;44.50
80228;DHT22;69539;42.138;24.742;2024-02-26T01:35:54;16.80;44.60
80228;DHT22;69539;42.138;24.742;2024-02-26T01:48:00;16.80;45.00
80228;DHT22;69539;42.138;24.742;2024-02-26T01:54:19;16.80;45.10
80228;DHT22;69539;42.138;24.742;2024-02-26T02:06:15;16.80;44.50
80228;DHT22;69539;42.138;24.742;2024-02-26T02:13:11;16.90;44.20
80228;DHT22;69539;42.138;24.742;2024-02-26T02:16:10;16.90;44.00
80228;DHT22;69539;42.138;24.742;2024-02-26T02:19:13;16.90;44.00
80228;DHT22;69539;42.138;24.742;2024-02-26T02:22:14;16.90;43.90
80228;DHT22;69539;42.138;24.742;2024-02-26T02:25:06;16.80;44.00
80228;DHT22;69539;42.138;24.742;2024-02-26T02:28:14;16.90;43.70
80228;DHT22;69539;42.138;24.742;2024-02-26T02:31:19;16.80;43.70
80228;DHT22;69539;42.138;24.742;2024-02-26T02:37:12;16.80;43.70
80228;DHT22;69539;42.138;24.742;2024-02-26T02:40:02;16.80;43.90
80228;DHT22;69539;42.138;24.742;2024-02-26T02:42:43;16.80;43.80
80228;DHT22;69539;42.138;24.742;2024-02-26T02:58:04;16.60;44.50
80228;DHT22;69539;42.138;24.742;2024-02-26T03:27:20;16.20;45.50
80228;DHT22;69539;42.138;24.742;2024-02-26T03:40:23;16.10;45.90
80228;DHT22;69539;42.138;24.742;2024-02-26T03:46:50;16.10;46.30
80228;DHT22;69539;42.138;24.742;2024-02-26T03:49:22;16.10;46.30
80228;DHT22;69539;42.138;24.742;2024-02-26T03:55:30;16.10;46.70
80228;DHT22;69539;42.138;24.742;2024-02-26T04:01:46;16.00;46.80
80228;DHT22;69539;42.138;24.742;2024-02-26T04:08:11;15.90;46.80
80228;DHT22;69539;42.138;24.742;2024-02-26T04:17:03;15.90;47.20
80228;DHT22;69539;42.138;24.742;2024-02-26T04:22:59;15.80;47.20
80228;DHT22;69539;42.138;24.742;2024-02-26T04:29:07;15.80;47.30
80228;DHT22;69539;42.138;24.742;2024-02-26T04:32:06;15.80;47.20
80228;DHT22;69539;42.138;24.742;2024-02-26T04:41:25;15.70;46.70
80228;DHT22;69539;42.138;24.742;2024-02-26T04:54:28;15.70;46.10
80228;DHT22;69539;42.138;24.742;2024-02-26T04:57:08;15.70;46.40
80228;DHT22;69539;42.138;24.742;2024-02-26T05:13:47;15.70;46.00
80228;DHT22;69539;42.138;24.742;2024-02-26T05:16:46;15.70;45.70
80228;DHT22;69539;42.138;24.742;2024-02-26T05:25:49;15.70;45.00
80228;DHT22;69539;42.138;24.742;2024-02-26T05:28:26;15.70;45.00
80228;DHT22;69539;42.138;24.742;2024-02-26T05:34:49;15.70;45.00
80228;DHT22;69539;42.138;24.742;2024-02-26T05:40:51;15.70;45.60
80228;DHT22;69539;42.138;24.742;2024-02-26T05:43:20;15.80;45.70
80228;DHT22;69539;42.138;24.742;2024-02-26T05:46:26;15.80;46.00
80228;DHT22;69539;42.138;24.742;2024-02-26T05:48:55;15.80;45.50
80228;DHT22;69539;42.138;24.742;2024-02-26T05:55:23;15.90;45.30
80228;DHT22;69539;42.138;24.742;2024-02-26T05:58:13;15.90;44.90
80228;DHT22;69539;42.138;24.742;2024-02-26T06:00:39;15.90;45.80
80228;DHT22;69539;42.138;24.742;2024-02-26T06:03:05;16.00;47.40
80228;DHT22;69539;42.138;24.742;2024-02-26T06:05:31;16.00;46.20
80228;DHT22;69539;42.138;24.742;2024-02-26T06:08:11;16.10;46.40
80228;DHT22;69539;42.138;24.742;2024-02-26T06:10:40;16.10;47.30
80228;DHT22;69539;42.138;24.742;2024-02-26T06:13:17;16.20;46.40
80228;DHT22;69539;42.138;24.742;2024-02-26T06:15:49;16.30;46.00
80228;DHT22;69539;42.138;24.742;2024-02-26T06:18:59;16.30;45.40
80228;DHT22;69539;42.138;24.742;2024-02-26T06:25:15;16.30;44.80
80228;DHT22;69539;42.138;24.742;2024-02-26T06:27:47;16.30;44.70
80228;DHT22;69539;42.138;24.742;2024-02-26T06:31:08;16.40;44.40
80228;DHT22;69539;42.138;24.742;2024-02-26T06:33:40;16.30;44.20
80228;DHT22;69539;42.138;24.742;2024-02-26T06:36:09;16.40;44.50
80228;DHT22;69539;42.138;24.742;2024-02-26T06:38:35;16.40;44.40
80228;DHT22;69539;42.138;24.742;2024-02-26T06:41:04;16.40;44.20
80228;DHT22;69539;42.138;24.742;2024-02-26T06:53:19;16.60;43.60
80228;DHT22;69539;42.138;24.742;2024-02-26T06:56:38;16.60;43.50
80228;DHT22;69539;42.138;24.742;2024-02-26T06:59:48;16.60;43.50
80228;DHT22;69539;42.138;24.742;2024-02-26T07:02:16;16.60;43.50
80228;DHT22;69539;42.138;24.742;2024-02-26T07:04:42;16.60;43.50
80228;DHT22;69539;42.138;24.742;2024-02-26T07:13:27;16.70;43.90
80228;DHT22;69539;42.138;24.742;2024-02-26T07:16:18;16.60;43.70
80228;DHT22;69539;42.138;24.742;2024-02-26T07:35:40;16.70;43.90
80228;DHT22;69539;42.138;24.742;2024-02-26T07:38:18;16.70;43.60
80228;DHT22;69539;42.138;24.742;2024-02-26T07:41:45;16.70;43.60
80228;DHT22;69539;42.138;24.742;2024-02-26T07:44:01;16.80;43.50
80228;DHT22;69539;42.138;24.742;2024-02-26T07:46:26;16.80;43.40
80228;DHT22;69539;42.138;24.742;2024-02-26T07:49:14;16.80;43.30
80228;DHT22;69539;42.138;24.742;2024-02-26T07:55:08;16.90;43.20
80228;DHT22;69539;42.138;24.742;2024-02-26T08:07:23;17.10;44.00
80228;DHT22;69539;42.138;24.742;2024-02-26T08:10:24;17.20;42.80
80228;DHT22;69539;42.138;24.742;2024-02-26T08:12:50;17.20;42.60
80228;DHT22;69539;42.138;24.742;2024-02-26T08:15:42;17.20;42.30
80228;DHT22;69539;42.138;24.742;2024-02-26T08:18:26;17.30;42.20
80228;DHT22;69539;42.138;24.742;2024-02-26T08:24:08;17.40;41.80
80228;DHT22;69539;42.138;24.742;2024-02-26T08:30:27;17.60;41.20
80228;DHT22;69539;42.138;24.742;2024-02-26T08:32:59;17.70;40.60
80228;DHT22;69539;42.138;24.742;2024-02-26T08:35:46;17.70;40.40
80228;DHT22;69539;42.138;24.742;2024-02-26T08:45:10;17.90;40.30
80228;DHT22;69539;42.138;24.742;2024-02-26T08:48:13;18.00;40.00
80228;DHT22;69539;42.138;24.742;2024-02-26T08:50:38;18.00;39.70
80228;DHT22;69539;42.138;24.742;2024-02-26T08:53:16;18.10;39.60
80228;DHT22;69539;42.138;24.742;2024-02-26T08:56:05;18.20;39.40
80228;DHT22;69539;42.138;24.742;2024-02-26T08:58:31;18.30;39.30
80228;DHT22;69539;42.138;24.742;2024-02-26T09:01:11;18.30;40.00
80228;DHT22;69539;42.138;24.742;2024-02-26T09:07:09;18.50;38.30
80228;DHT22;69539;42.138;24.742;2024-02-26T09:09:58;18.60;38.20
80228;DHT22;69539;42.138;24.742;2024-02-26T09:13:17;18.70;38.10
80228;DHT22;69539;42.138;24.742;2024-02-26T09:19:12;18.90;37.50
80228;DHT22;69539;42.138;24.742;2024-02-26T09:41:53;19.50;36.80
80228;DHT22;69539;42.138;24.742;2024-02-26T09:44:54;19.70;36.70
80228;DHT22;69539;42.138;24.742;2024-02-26T09:48:10;19.80;36.40
80228;DHT22;69539;42.138;24.742;2024-02-26T09:51:14;20.00;36.10
80228;DHT22;69539;42.138;24.742;2024-02-26T09:55:32;20.40;34.90
80228;DHT22;69539;42.138;24.742;2024-02-26T09:57:57;20.40;35.30
80228;DHT22;69539;42.138;24.742;2024-02-26T10:00:25;20.50;35.30
80228;DHT22;69539;42.138;24.742;2024-02-26T10:02:55;20.60;35.00
80228;DHT22;69539;42.138;24.742;2024-02-26T10:05:23;20.70;34.60
80228;DHT22;69539;42.138;24.742;2024-02-26T10:07:50;20.90;34.30
80228;DHT22;69539;42.138;24.742;2024-02-26T10:10:17;21.20;33.90
80228;DHT22;69539;42.138;24.742;2024-02-26T10:12:43;21.40;33.50
80228;DHT22;69539;42.138;24.742;2024-02-26T10:15:09;21.60;33.20
80228;DHT22;69539;42.138;24.742;2024-02-26T10:17:35;21.80;32.80
80228;DHT22;69539;42.138;24.742;2024-02-26T10:20:16;21.90;33.40
80228;DHT22;69539;42.138;24.742;2024-02-26T10:22:43;22.00;32.40
80228;DHT22;69539;42.138;24.742;2024-02-26T10:25:09;22.10;32.20
80228;DHT22;69539;42.138;24.742;2024-02-26T10:27:35;22.20;31.90
80228;DHT22;69539;42.138;24.742;2024-02-26T10:32:40;22.30;31.60
80228;DHT22;69539;42.138;24.742;2024-02-26T10:35:08;22.40;32.20
80228;DHT22;69539;42.138;24.742;2024-02-26T10:37:34;22.40;32.10
80228;DHT22;69539;42.138;24.742;2024-02-26T10:39:59;22.40;31.80
80228;DHT22;69539;42.138;24.742;2024-02-26T10:42:26;22.50;31.30
80228;DHT22;69539;42.138;24.742;2024-02-26T10:44:51;22.50;31.10
80228;DHT22;69539;42.138;24.742;2024-02-26T10:47:17;22.60;30.70
80228;DHT22;69539;42.138;24.742;2024-02-26T10:49:49;22.60;30.70
80228;DHT22;69539;42.138;24.742;2024-02-26T10:52:19;22.60;30.30
80228;DHT22;69539;42.138;24.742;2024-02-26T10:54:47;22.60;30.00
80228;DHT22;69539;42.138;24.742;2024-02-26T10:57:14;22.60;30.00
80228;DHT22;69539;42.138;24.742;2024-02-26T10:59:42;22.70;29.90
80228;DHT22;69539;42.138;24.742;2024-02-26T11:02:10;22.70;29.90
80228;DHT22;69539;42.138;24.742;2024-02-26T11:04:37;22.80;29.90
80228;DHT22;69539;42.138;24.742;2024-02-26T11:07:04;22.80;29.90
80228;DHT22;69539;42.138;24.742;2024-02-26T11:09:32;23.00;29.60
80228;DHT22;69539;42.138;24.742;2024-02-26T11:11:59;23.00;29.20
80228;DHT22;69539;42.138;24.742;2024-02-26T11:14:26;23.00;28.90
80228;DHT22;69539;42.138;24.742;2024-02-26T11:16:52;23.00;28.80
80228;DHT22;69539;42.138;24.742;2024-02-26T11:19:18;23.00;28.50
80228;DHT22;69539;42.138;24.742;2024-02-26T11:21:44;23.00;28.70
80228;DHT22;69539;42.138;24.742;2024-02-26T11:24:13;22.90;28.60
80228;DHT22;69539;42.138;24.742;2024-02-26T11:26:57;23.00;28.40
80228;DHT22;69539;42.138;24.742;2024-02-26T11:29:47;23.00;28.40
80228;DHT22;69539;42.138;24.742;2024-02-26T11:32:14;23.00;28.30
80228;DHT22;69539;42.138;24.742;2024-02-26T11:34:40;23.10;28.40
80228;DHT22;69539;42.138;24.742;2024-02-26T11:37:14;23.10;28.90
80228;DHT22;69539;42.138;24.742;2024-02-26T11:39:45;23.10;28.90
80228;DHT22;69539;42.138;24.742;2024-02-26T11:42:14;23.00;28.80
80228;DHT22;69539;42.138;24.742;2024-02-26T11:44:41;23.00;28.70
80228;DHT22;69539;42.138;24.742;2024-02-26T11:47:28;22.90;29.90
80228;DHT22;69539;42.138;24.742;2024-02-26T11:49:53;22.90;29.20
80228;DHT22;69539;42.138;24.742;2024-02-26T11:52:19;22.80;29.20
80228;DHT22;69539;42.138;24.742;2024-02-26T11:54:47;22.80;29.10
80228;DHT22;69539;42.138;24.742;2024-02-26T11:57:39;22.80;29.00
80228;DHT22;69539;42.138;24.742;2024-02-26T12:00:13;22.70;29.10
80228;DHT22;69539;42.138;24.742;2024-02-26T12:02:48;22.70;29.40
80228;DHT22;69539;42.138;24.742;2024-02-26T12:05:16;22.70;29.40
80228;DHT22;69539;42.138;24.742;2024-02-26T12:07:44;22.70;29.40
80228;DHT22;69539;42.138;24.742;2024-02-26T12:10:27;22.70;29.50
80228;DHT22;69539;42.138;24.742;2024-02-26T12:13:08;22.70;29.10
80228;DHT22;69539;42.138;24.742;2024-02-26T12:15:38;22.70;29.20
80228;DHT22;69539;42.138;24.742;2024-02-26T12:18:06;22.70;29.50
80228;DHT22;69539;42.138;24.742;2024-02-26T12:20:32;22.70;29.60
80228;DHT22;69539;42.138;24.742;2024-02-26T12:22:58;22.70;29.50
80228;DHT22;69539;42.138;24.742;2024-02-26T12:25:28;22.70;29.40
80228;DHT22;69539;42.138;24.742;2024-02-26T12:27:54;22.70;29.20
80228;DHT22;69539;42.138;24.742;2024-02-26T12:30:21;22.70;29.30
80228;DHT22;69539;42.138;24.742;2024-02-26T12:32:51;22.80;29.40
80228;DHT22;69539;42.138;24.742;2024-02-26T12:35:16;22.80;29.20
80228;DHT22;69539;42.138;24.742;2024-02-26T12:37:43;22.80;29.10
80228;DHT22;69539;42.138;24.742;2024-02-26T12:40:10;22.80;29.20
80228;DHT22;69539;42.138;24.742;2024-02-26T12:42:36;22.70;29.00
80228;DHT22;69539;42.138;24.742;2024-02-26T12:45:15;22.80;29.30
80228;DHT22;69539;42.138;24.742;2024-02-26T12:47:45;22.70;29.20
80228;DHT22;69539;42.138;24.742;2024-02-26T12:50:12;22.70;29.10
80228;DHT22;69539;42.138;24.742;2024-02-26T12:52:44;22.70;29.80
80228;DHT22;69539;42.138;24.742;2024-02-26T12:55:13;22.70;29.70
80228;DHT22;69539;42.138;24.742;2024-02-26T12:57:40;22.70;29.40
80228;DHT22;69539;42.138;24.742;2024-02-26T13:00:12;22.70;29.30
80228;DHT22;69539;42.138;24.742;2024-02-26T13:02:40;22.70;29.30
80228;DHT22;69539;42.138;24.742;2024-02-26T13:05:08;22.70;29.40
80228;DHT22;69539;42.138;24.742;2024-02-26T13:07:34;22.70;29.50
80228;DHT22;69539;42.138;24.742;2024-02-26T13:10:00;22.70;29.60
80228;DHT22;69539;42.138;24.742;2024-02-26T13:12:26;22.60;29.70
80228;DHT22;69539;42.138;24.742;2024-02-26T13:15:02;22.60;29.80
80228;DHT22;69539;42.138;24.742;2024-02-26T13:17:32;22.60;29.80
80228;DHT22;69539;42.138;24.742;2024-02-26T13:19:57;22.60;29.80
80228;DHT22;69539;42.138;24.742;2024-02-26T13:22:23;22.60;29.80
80228;DHT22;69539;42.138;24.742;2024-02-26T13:24:59;22.50;29.70
80228;DHT22;69539;42.138;24.742;2024-02-26T13:27:25;22.50;30.00
80228;DHT22;69539;42.138;24.742;2024-02-26T13:30:11;22.50;30.00
80228;DHT22;69539;42.138;24.742;2024-02-26T13:32:39;22.50;30.20
80228;DHT22;69539;42.138;24.742;2024-02-26T13:35:09;22.50;29.90
80228;DHT22;69539;42.138;24.742;2024-02-26T13:37:36;22.50;29.90
80228;DHT22;69539;42.138;24.742;2024-02-26T13:40:08;22.40;29.70
80228;DHT22;69539;42.138;24.742;2024-02-26T13:42:35;22.40;29.70
80228;DHT22;69539;42.138;24.742;2024-02-26T13:45:01;22.40;29.70
80228;DHT22;69539;42.138;24.742;2024-02-26T13:47:27;22.30;29.60
80228;DHT22;69539;42.138;24.742;2024-02-26T13:49:52;22.30;29.70
80228;DHT22;69539;42.138;24.742;2024-02-26T13:52:18;22.30;29.70
80228;DHT22;69539;42.138;24.742;2024-02-26T13:54:46;22.30;29.80
80228;DHT22;69539;42.138;24.742;2024-02-26T13:57:11;22.20;29.80
80228;DHT22;69539;42.138;24.742;2024-02-26T13:59:37;22.10;29.80
80228;DHT22;69539;42.138;24.742;2024-02-26T14:02:07;22.10;29.80
80228;DHT22;69539;42.138;24.742;2024-02-26T14:04:32;22.00;29.90
80228;DHT22;69539;42.138;24.742;2024-02-26T14:06:58;22.00;29.90
80228;DHT22;69539;42.138;24.742;2024-02-26T14:09:24;21.90;29.90
80228;DHT22;69539;42.138;24.742;2024-02-26T14:11:49;21.90;30.00
80228;DHT22;69539;42.138;24.742;2024-02-26T14:14:15;21.90;30.00
80228;DHT22;69539;42.138;24.742;2024-02-26T14:16:41;21.90;30.00
80228;DHT22;69539;42.138;24.742;2024-02-26T14:19:06;21.80;30.00
80228;DHT22;69539;42.138;24.742;2024-02-26T14:21:32;21.80;30.10
80228;DHT22;69539;42.138;24.742;2024-02-26T14:23:57;21.80;30.10
80228;DHT22;69539;42.138;24.742;2024-02-26T14:26:23;21.70;30.20
80228;DHT22;69539;42.138;24.742;2024-02-26T14:28:49;21.60;30.20
80228;DHT22;69539;42.138;24.742;2024-02-26T14:31:18;21.60;30.30
80228;DHT22;69539;42.138;24.742;2024-02-26T14:33:44;21.60;30.40
80228;DHT22;69539;42.138;24.742;2024-02-26T14:36:10;21.50;30.30
80228;DHT22;69539;42.138;24.742;2024-02-26T14:38:36;21.40;30.00
80228;DHT22;69539;42.138;24.742;2024-02-26T14:41:02;21.40;29.80
80228;DHT22;69539;42.138;24.742;2024-02-26T14:43:28;21.30;29.90
80228;DHT22;69539;42.138;24.742;2024-02-26T14:45:54;21.30;29.70
80228;DHT22;69539;42.138;24.742;2024-02-26T14:48:19;21.20;29.60
80228;DHT22;69539;42.138;24.742;2024-02-26T14:50:45;21.10;29.60
80228;DHT22;69539;42.138;24.742;2024-02-26T14:53:11;21.10;29.60
80228;DHT22;69539;42.138;24.742;2024-02-26T14:55:36;21.10;29.70
80228;DHT22;69539;42.138;24.742;2024-02-26T14:58:03;21.10;29.90
80228;DHT22;69539;42.138;24.742;2024-02-26T15:00:29;21.00;29.80
80228;DHT22;69539;42.138;24.742;2024-02-26T15:02:54;21.00;30.00
80228;DHT22;69539;42.138;24.742;2024-02-26T15:05:20;20.90;29.90
80228;DHT22;69539;42.138;24.742;2024-02-26T15:07:46;20.90;30.00
80228;DHT22;69539;42.138;24.742;2024-02-26T15:10:12;20.90;30.00
80228;DHT22;69539;42.138;24.742;2024-02-26T15:12:38;20.80;30.00
80228;DHT22;69539;42.138;24.742;2024-02-26T15:15:04;20.80;30.20
80228;DHT22;69539;42.138;24.742;2024-02-26T15:17:29;20.70;30.40
80228;DHT22;69539;42.138;24.742;2024-02-26T15:19:57;20.70;30.10
80228;DHT22;69539;42.138;24.742;2024-02-26T15:22:24;20.70;30.20
80228;DHT22;69539;42.138;24.742;2024-02-26T15:24:50;20.60;31.20
80228;DHT22;69539;42.138;24.742;2024-02-26T15:27:16;20.60;30.10
80228;DHT22;69539;42.138;24.742;2024-02-26T15:29:42;20.60;30.30
80228;DHT22;69539;42.138;24.742;2024-02-26T15:32:08;20.60;30.60
80228;DHT22;69539;42.138;24.742;2024-02-26T15:34:33;20.50;30.60
80228;DHT22;69539;42.138;24.742;2024-02-26T15:36:59;20.50;30.60
80228;DHT22;69539;42.138;24.742;2024-02-26T15:39:25;20.40;30.40
80228;DHT22;69539;42.138;24.742;2024-02-26T15:41:50;20.40;30.50
80228;DHT22;69539;42.138;24.742;2024-02-26T15:44:17;20.30;30.60
80228;DHT22;69539;42.138;24.742;2024-02-26T15:46:43;20.30;30.80
80228;DHT22;69539;42.138;24.742;2024-02-26T15:49:08;20.30;31.60
80228;DHT22;69539;42.138;24.742;2024-02-26T15:51:35;20.20;30.80
80228;DHT22;69539;42.138;24.742;2024-02-26T15:54:01;20.20;30.50
80228;DHT22;69539;42.138;24.742;2024-02-26T15:56:27;20.20;30.60
80228;DHT22;69539;42.138;24.742;2024-02-26T15:58:53;20.10;30.50
80228;DHT22;69539;42.138;24.742;2024-02-26T16:01:19;20.10;30.70
80228;DHT22;69539;42.138;24.742;2024-02-26T16:03:45;20.10;30.60
80228;DHT22;69539;42.138;24.742;2024-02-26T16:09:05;20.00;30.70
80228;DHT22;69539;42.138;24.742;2024-02-26T16:11:32;20.00;30.70
80228;DHT22;69539;42.138;24.742;2024-02-26T16:16:41;19.90;30.90
80228;DHT22;69539;42.138;24.742;2024-02-26T16:19:11;19.90;31.00
80228;DHT22;69539;42.138;24.742;2024-02-26T16:21:38;19.80;31.00
80228;DHT22;69539;42.138;24.742;2024-02-26T16:24:05;19.80;31.00
80228;DHT22;69539;42.138;24.742;2024-02-26T16:26:31;19.80;31.10
80228;DHT22;69539;42.138;24.742;2024-02-26T16:28:57;19.80;31.30
80228;DHT22;69539;42.138;24.742;2024-02-26T16:31:23;19.80;31.90
80228;DHT22;69539;42.138;24.742;2024-02-26T16:33:49;19.70;32.20
80228;DHT22;69539;42.138;24.742;2024-02-26T16:36:14;19.70;32.40
80228;DHT22;69539;42.138;24.742;2024-02-26T16:38:40;19.80;33.00
80228;DHT22;69539;42.138;24.742;2024-02-26T16:41:05;19.80;31.90
80228;DHT22;69539;42.138;24.742;2024-02-26T16:43:31;19.80;31.80
80228;DHT22;69539;42.138;24.742;2024-02-26T16:45:58;19.80;31.80
80228;DHT22;69539;42.138;24.742;2024-02-26T16:48:25;19.80;31.80
80228;DHT22;69539;42.138;24.742;2024-02-26T16:50:50;19.70;31.90
80228;DHT22;69539;42.138;24.742;2024-02-26T16:53:16;19.70;31.90
80228;DHT22;69539;42.138;24.742;2024-02-26T16:55:42;19.70;32.10
80228;DHT22;69539;42.138;24.742;2024-02-26T16:58:08;19.70;32.30
80228;DHT22;69539;42.138;24.742;2024-02-26T17:00:34;19.60;32.40
80228;DHT22;69539;42.138;24.742;2024-02-26T17:03:00;19.60;32.80
80228;DHT22;69539;42.138;24.742;2024-02-26T17:05:26;19.60;33.70
80228;DHT22;69539;42.138;24.742;2024-02-26T17:07:52;19.60;33.80
80228;DHT22;69539;42.138;24.742;2024-02-26T17:10:17;19.60;33.40
80228;DHT22;69539;42.138;24.742;2024-02-26T17:12:43;19.60;33.20
80228;DHT22;69539;42.138;24.742;2024-02-26T17:15:10;19.60;33.10
80228;DHT22;69539;42.138;24.742;2024-02-26T17:17:36;19.60;33.40
80228;DHT22;69539;42.138;24.742;2024-02-26T17:20:03;19.60;33.50
80228;DHT22;69539;42.138;24.742;2024-02-26T17:22:29;19.60;33.20
80228;DHT22;69539;42.138;24.742;2024-02-26T17:24:55;19.60;32.90
80228;DHT22;69539;42.138;24.742;2024-02-26T17:27:21;19.50;32.80
80228;DHT22;69539;42.138;24.742;2024-02-26T17:29:47;19.50;32.80
80228;DHT22;69539;42.138;24.742;2024-02-26T17:32:13;19.50;32.80
80228;DHT22;69539;42.138;24.742;2024-02-26T17:34:39;19.50;32.90
80228;DHT22;69539;42.138;24.742;2024-02-26T17:37:04;19.40;33.00
80228;DHT22;69539;42.138;24.742;2024-02-26T17:39:30;19.40;33.10
80228;DHT22;69539;42.138;24.742;2024-02-26T17:41:56;19.40;33.10
80228;DHT22;69539;42.138;24.742;2024-02-26T17:44:21;19.40;33.30
80228;DHT22;69539;42.138;24.742;2024-02-26T17:46:50;19.40;33.20
80228;DHT22;69539;42.138;24.742;2024-02-26T17:49:16;19.40;33.10
80228;DHT22;69539;42.138;24.742;2024-02-26T17:51:42;19.40;33.40
80228;DHT22;69539;42.138;24.742;2024-02-26T17:54:08;19.40;33.70
80228;DHT22;69539;42.138;24.742;2024-02-26T17:56:33;19.40;33.50
80228;DHT22;69539;42.138;24.742;2024-02-26T17:58:59;19.40;33.70
80228;DHT22;69539;42.138;24.742;2024-02-26T18:01:25;19.40;33.60
80228;DHT22;69539;42.138;24.742;2024-02-26T18:03:50;19.40;33.30
80228;DHT22;69539;42.138;24.742;2024-02-26T18:06:18;19.40;33.20
80228;DHT22;69539;42.138;24.742;2024-02-26T18:08:44;19.30;33.00
80228;DHT22;69539;42.138;24.742;2024-02-26T18:11:13;19.30;32.50
80228;DHT22;69539;42.138;24.742;2024-02-26T18:13:39;19.30;32.60
80228;DHT22;69539;42.138;24.742;2024-02-26T18:16:10;19.30;32.40
80228;DHT22;69539;42.138;24.742;2024-02-26T18:18:35;19.30;32.50
80228;DHT22;69539;42.138;24.742;2024-02-26T18:21:01;19.20;32.50
80228;DHT22;69539;42.138;24.742;2024-02-26T18:23:26;19.20;32.50
80228;DHT22;69539;42.138;24.742;2024-02-26T18:25:52;19.20;32.40
80228;DHT22;69539;42.138;24.742;2024-02-26T18:28:18;19.10;32.50
80228;DHT22;69539;42.138;24.742;2024-02-26T18:30:44;19.10;32.90
80228;DHT22;69539;42.138;24.742;2024-02-26T18:33:11;19.10;33.00
80228;DHT22;69539;42.138;24.742;2024-02-26T18:35:37;19.10;33.00
80228;DHT22;69539;42.138;24.742;2024-02-26T18:38:03;19.10;33.20
80228;DHT22;69539;42.138;24.742;2024-02-26T18:40:29;19.10;33.20
80228;DHT22;69539;42.138;24.742;2024-02-26T18:42:54;19.10;33.50
80228;DHT22;69539;42.138;24.742;2024-02-26T18:45:20;19.10;33.50
80228;DHT22;69539;42.138;24.742;2024-02-26T18:47:47;19.10;33.70
80228;DHT22;69539;42.138;24.742;2024-02-26T18:50:15;19.10;34.10
80228;DHT22;69539;42.138;24.742;2024-02-26T18:52:41;19.10;34.20
80228;DHT22;69539;42.138;24.742;2024-02-26T18:55:07;19.10;34.40
80228;DHT22;69539;42.138;24.742;2024-02-26T18:57:33;19.00;34.60
80228;DHT22;69539;42.138;24.742;2024-02-26T18:59:58;19.00;34.80
80228;DHT22;69539;42.138;24.742;2024-02-26T19:02:24;19.00;36.20
80228;DHT22;69539;42.138;24.742;2024-02-26T19:04:51;18.90;35.30
80228;DHT22;69539;42.138;24.742;2024-02-26T19:07:17;18.90;35.70
80228;DHT22;69539;42.138;24.742;2024-02-26T19:09:43;18.90;35.70
80228;DHT22;69539;42.138;24.742;2024-02-26T19:12:09;18.80;35.90
80228;DHT22;69539;42.138;24.742;2024-02-26T19:14:35;18.80;35.80
80228;DHT22;69539;42.138;24.742;2024-02-26T19:17:00;18.80;35.70
80228;DHT22;69539;42.138;24.742;2024-02-26T19:19:26;18.70;36.20
80228;DHT22;69539;42.138;24.742;2024-02-26T19:21:52;18.70;36.80
80228;DHT22;69539;42.138;24.742;2024-02-26T19:24:18;18.60;36.70
80228;DHT22;69539;42.138;24.742;2024-02-26T19:26:44;18.60;36.40
80228;DHT22;69539;42.138;24.742;2024-02-26T19:29:09;18.60;36.40
80228;DHT22;69539;42.138;24.742;2024-02-26T19:31:35;18.60;36.30
80228;DHT22;69539;42.138;24.742;2024-02-26T19:34:01;18.60;36.30
80228;DHT22;69539;42.138;24.742;2024-02-26T19:36:26;18.60;36.30
80228;DHT22;69539;42.138;24.742;2024-02-26T19:38:52;18.50;36.30
80228;DHT22;69539;42.138;24.742;2024-02-26T19:41:18;18.50;36.40
80228;DHT22;69539;42.138;24.742;2024-02-26T19:43:43;18.50;36.50
80228;DHT22;69539;42.138;24.742;2024-02-26T19:46:10;18.40;36.60
80228;DHT22;69539;42.138;24.742;2024-02-26T19:48:35;18.40;37.30
80228;DHT22;69539;42.138;24.742;2024-02-26T19:51:03;18.40;37.60
80228;DHT22;69539;42.138;24.742;2024-02-26T19:53:28;18.40;37.20
80228;DHT22;69539;42.138;24.742;2024-02-26T19:55:54;18.40;36.90
80228;DHT22;69539;42.138;24.742;2024-02-26T19:58:22;18.40;36.90
80228;DHT22;69539;42.138;24.742;2024-02-26T20:00:47;18.40;36.80
80228;DHT22;69539;42.138;24.742;2024-02-26T20:03:13;18.30;36.70
80228;DHT22;69539;42.138;24.742;2024-02-26T20:05:39;18.30;36.70
80228;DHT22;69539;42.138;24.742;2024-02-26T20:08:04;18.30;36.70
80228;DHT22;69539;42.138;24.742;2024-02-26T20:10:30;18.20;36.50
80228;DHT22;69539;42.138;24.742;2024-02-26T20:12:57;18.30;36.40
80228;DHT22;69539;42.138;24.742;2024-02-26T20:15:24;18.20;35.60
80228;DHT22;69539;42.138;24.742;2024-02-26T20:17:50;18.20;35.20
80228;DHT22;69539;42.138;24.742;2024-02-26T20:20:16;18.10;34.60
80228;DHT22;69539;42.138;24.742;2024-02-26T20:22:43;18.20;34.10
80228;DHT22;69539;42.138;24.742;2024-02-26T20:25:09;18.10;33.90
80228;DHT22;69539;42.138;24.742;2024-02-26T20:27:36;18.10;34.30
80228;DHT22;69539;42.138;24.742;2024-02-26T20:30:01;18.10;33.60
80228;DHT22;69539;42.138;24.742;2024-02-26T20:32:27;18.10;33.10
80228;DHT22;69539;42.138;24.742;2024-02-26T20:34:54;18.00;33.10
80228;DHT22;69539;42.138;24.742;2024-02-26T20:37:20;18.00;32.70
80228;DHT22;69539;42.138;24.742;2024-02-26T20:39:47;18.00;32.40
80228;DHT22;69539;42.138;24.742;2024-02-26T20:42:13;17.90;32.20
80228;DHT22;69539;42.138;24.742;2024-02-26T20:44:39;17.90;32.00
80228;DHT22;69539;42.138;24.742;2024-02-26T20:47:05;17.90;32.10
80228;DHT22;69539;42.138;24.742;2024-02-26T20:49:30;17.90;32.00
80228;DHT22;69539;42.138;24.742;2024-02-26T20:51:56;17.80;32.00